Time;durP1;ratioP1;P1;durP2;ratioP2;P2;SDS_P1;SDS_P2;PMS_P1;PMS_P2;Temp;Humidity;BMP_temperature;BMP_pressure;BME280_temperature;BME280_humidity;BME280_pressure;Samples;Min_cycle;Max_cycle;Signal;HPM_P1;HPM_P2
2022/08/23 00:01:21;;;;;;;16.13;6.65;;;18.00;99.90;;;;;;5057585;28;20049;-72
2022/08/23 00:03:49;;;;;;;14.80;8.63;;;17.90;99.90;;;;;;5079145;28;20045;-72
2022/08/23 00:06:16;;;;;;;10.10;6.35;;;17.90;99.90;;;;;;5072237;28;20423;-72
2022/08/23 00:08:41;;;;;;;10.30;6.40;;;17.90;99.90;;;;;;5070931;28;20044;-72
2022/08/23 00:11:29;;;;;;;14.43;6.47;;;17.90;99.90;;;;;;5068206;28;20045;-72
2022/08/23 00:13:55;;;;;;;13.63;5.97;;;17.90;99.90;;;;;;5054585;28;20044;-72
2022/08/23 00:16:21;;;;;;;15.73;7.68;;;17.80;99.90;;;;;;5069213;28;20135;-72
2022/08/23 00:18:47;;;;;;;13.27;5.75;;;17.80;99.90;;;;;;5072356;28;20563;-72
2022/08/23 00:21:13;;;;;;;11.05;7.03;;;17.80;99.90;;;;;;5069316;28;20045;-72
2022/08/23 00:23:39;;;;;;;10.75;6.18;;;17.80;99.90;;;;;;5070794;28;20392;-72
2022/08/23 00:26:05;;;;;;;18.13;6.78;;;17.70;99.90;;;;;;5072576;28;20037;-72
2022/08/23 00:28:30;;;;;;;16.77;7.45;;;17.70;99.90;;;;;;5072792;28;20115;-72
2022/08/23 00:30:57;;;;;;;20.55;7.38;;;17.70;99.90;;;;;;5071286;28;20499;-72
2022/08/23 00:33:24;;;;;;;15.50;6.53;;;17.70;99.90;;;;;;5052848;28;20421;-72
2022/08/23 00:35:50;;;;;;;11.77;6.93;;;17.60;99.90;;;;;;5074027;28;20052;-72
2022/08/23 00:38:16;;;;;;;12.98;7.10;;;17.60;99.90;;;;;;5072853;28;20045;-72
2022/08/23 00:40:47;;;;;;;13.35;7.75;;;17.60;99.90;;;;;;5067292;28;20047;-73
2022/08/23 00:49:14;;;;;;;13.63;7.80;;;17.50;99.90;;;;;;5070620;28;20151;-72
2022/08/23 00:52:00;;;;;;;12.48;6.65;;;17.50;99.90;;;;;;5070460;28;20486;-72
2022/08/23 00:54:28;;;;;;;17.70;7.55;;;17.50;99.90;;;;;;5042779;28;20102;-72
2022/08/23 00:56:54;;;;;;;;;;;17.50;99.90;;;;;;5061331;28;20446;-72
2022/08/23 00:59:20;;;;;;;14.02;6.93;;;17.50;99.90;;;;;;5046383;28;19928;-72
2022/08/23 01:01:47;;;;;;;14.02;7.78;;;17.40;99.90;;;;;;5066886;28;20094;-72
2022/08/23 01:04:15;;;;;;;11.88;7.70;;;17.50;99.90;;;;;;5069675;28;20150;-73
2022/08/23 01:07:11;;;;;;;14.43;8.00;;;17.40;99.90;;;;;;5103578;22;21490;-67
2022/08/23 01:09:40;;;;;;;16.20;8.50;;;17.40;99.90;;;;;;5115754;27;20558;-67
2022/08/23 01:12:13;;;;;;;10.73;8.02;;;17.40;99.90;;;;;;5136424;27;20065;-67
2022/08/23 01:14:48;;;;;;;17.20;8.80;;;17.30;99.90;;;;;;5138566;27;20427;-66
2022/08/23 01:17:19;;;;;;;19.05;8.60;;;17.30;99.90;;;;;;5131642;27;20083;-67
2022/08/23 01:19:58;;;;;;;17.75;8.27;;;17.30;99.90;;;;;;5138037;27;20038;-67
2022/08/23 01:22:43;;;;;;;13.68;7.78;;;17.30;99.90;;;;;;5141991;27;20039;-66
2022/08/23 01:25:14;;;;;;;13.27;8.57;;;17.30;99.90;;;;;;5128718;27;20374;-65
2022/08/23 01:27:40;;;;;;;16.13;8.80;;;17.30;99.90;;;;;;5116957;27;20047;-66
2022/08/23 01:30:10;;;;;;;14.77;8.32;;;17.20;99.90;;;;;;5145400;27;20035;-66
2022/08/23 01:32:41;;;;;;;15.00;7.70;;;17.20;99.90;;;;;;5140947;27;20122;-65
2022/08/23 01:35:11;;;;;;;18.38;9.23;;;17.20;99.90;;;;;;5133940;27;20088;-66
2022/08/23 01:37:37;;;;;;;18.50;9.65;;;17.20;99.90;;;;;;5146711;27;20034;-67
2022/08/23 01:40:04;;;;;;;13.68;8.20;;;17.20;99.90;;;;;;5146483;27;20115;-66
2022/08/23 01:42:29;;;;;;;15.73;8.80;;;17.20;99.90;;;;;;5137251;27;20043;-66
2022/08/23 01:44:55;;;;;;;14.20;9.07;;;17.10;99.90;;;;;;5143665;27;20042;-68
2022/08/23 01:47:21;;;;;;;14.35;8.32;;;17.10;99.90;;;;;;5135259;27;20047;-67
2022/08/23 01:49:47;;;;;;;16.58;8.95;;;17.10;99.90;;;;;;5146706;27;20054;-65
2022/08/23 01:52:14;;;;;;;15.55;8.52;;;17.10;99.90;;;;;;5128033;27;20069;-66
2022/08/23 01:54:40;;;;;;;15.93;8.82;;;17.10;99.90;;;;;;5142339;27;20039;-66
2022/08/23 01:57:06;;;;;;;11.38;8.00;;;17.10;99.90;;;;;;5150260;27;20357;-65
2022/08/23 01:59:33;;;;;;;12.98;8.93;;;17.10;99.90;;;;;;5144100;27;20278;-66
2022/08/23 02:01:59;;;;;;;18.23;8.10;;;17.10;99.90;;;;;;5145015;27;20092;-67
2022/08/23 02:04:26;;;;;;;12.75;8.45;;;17.10;99.90;;;;;;5137605;27;20039;-66
2022/08/23 02:06:55;;;;;;;14.80;9.10;;;17.10;99.90;;;;;;5140994;27;20059;-66
2022/08/23 02:09:21;;;;;;;12.00;8.00;;;17.10;99.90;;;;;;5097270;28;20048;-66
2022/08/23 02:11:48;;;;;;;21.45;9.20;;;17.00;99.90;;;;;;5131088;27;20034;-65
2022/08/23 02:14:18;;;;;;;15.77;9.13;;;17.00;99.90;;;;;;5131983;27;20039;-66
2022/08/23 02:16:47;;;;;;;15.02;9.45;;;17.00;99.90;;;;;;5096848;28;20543;-66
2022/08/23 02:19:17;;;;;;;15.05;8.80;;;17.00;99.90;;;;;;5117048;28;20064;-67
2022/08/23 02:21:44;;;;;;;18.35;10.13;;;17.00;99.90;;;;;;5128224;27;20042;-66
2022/08/23 02:24:18;;;;;;;16.98;10.50;;;17.00;99.90;;;;;;5134523;27;20046;-67
2022/08/23 02:26:48;;;;;;;18.92;9.88;;;17.00;99.90;;;;;;5099761;28;20272;-67
2022/08/23 02:29:16;;;;;;;19.88;11.60;;;17.00;99.90;;;;;;5118567;27;20066;-66
2022/08/23 02:31:45;;;;;;;14.13;10.18;;;17.00;99.90;;;;;;5109940;28;20040;-67
2022/08/23 02:34:13;;;;;;;17.52;10.32;;;17.00;99.90;;;;;;5116760;27;20071;-66
2022/08/23 02:36:39;;;;;;;21.20;11.65;;;17.00;99.90;;;;;;5127269;27;20038;-66
2022/08/23 02:39:07;;;;;;;17.88;11.88;;;17.00;99.90;;;;;;5129562;27;20130;-67
2022/08/23 02:41:34;;;;;;;19.10;11.40;;;17.00;99.90;;;;;;5128461;27;20040;-67
2022/08/23 02:44:01;;;;;;;15.82;11.13;;;17.00;99.90;;;;;;5126669;27;20494;-67
2022/08/23 02:46:26;;;;;;;15.43;10.32;;;17.00;99.90;;;;;;5128886;27;20500;-66
2022/08/23 02:48:52;;;;;;;15.73;11.43;;;17.00;99.90;;;;;;5143042;27;20072;-66
2022/08/23 02:51:22;;;;;;;17.17;12.63;;;17.10;99.90;;;;;;5123370;27;20044;-66
2022/08/23 02:53:48;;;;;;;13.38;11.60;;;17.00;99.90;;;;;;5113691;27;20039;-66
2022/08/23 02:56:14;;;;;;;19.77;12.77;;;17.00;99.90;;;;;;5124577;27;20040;-66
2022/08/23 02:58:40;;;;;;;16.13;11.90;;;17.00;99.90;;;;;;5129923;27;20031;-68
2022/08/23 03:01:18;;;;;;;15.02;10.68;;;17.00;99.90;;;;;;5120640;27;20039;-66
2022/08/23 03:03:44;;;;;;;16.92;10.70;;;17.00;99.90;;;;;;5114543;27;20040;-66
2022/08/23 03:06:11;;;;;;;22.88;13.45;;;16.90;99.90;;;;;;5090965;28;20129;-66
2022/08/23 03:08:37;;;;;;;17.73;12.47;;;16.90;99.90;;;;;;5116837;27;20155;-67
2022/08/23 03:11:11;;;;;;;15.27;11.63;;;16.90;99.90;;;;;;5124418;27;20130;-66
2022/08/23 03:13:37;;;;;;;18.92;12.13;;;16.90;99.90;;;;;;5139964;27;20039;-66
2022/08/23 03:16:03;;;;;;;14.85;11.60;;;16.90;99.90;;;;;;5132425;27;20044;-67
2022/08/23 03:18:29;;;;;;;16.27;11.60;;;16.90;99.90;;;;;;5120311;27;20051;-68
2022/08/23 03:20:55;;;;;;;18.60;13.65;;;16.90;99.90;;;;;;5118417;27;20477;-66
2022/08/23 03:23:21;;;;;;;22.95;14.30;;;16.80;99.90;;;;;;5121666;27;20051;-67
2022/08/23 03:25:47;;;;;;;20.00;12.85;;;16.80;99.90;;;;;;5125519;27;20042;-67
2022/08/23 03:28:12;;;;;;;25.60;14.77;;;16.80;99.90;;;;;;5117128;27;20130;-67
2022/08/23 03:30:38;;;;;;;18.95;13.85;;;16.80;99.90;;;;;;5113465;27;20040;-67
2022/08/23 03:33:04;;;;;;;24.70;14.90;;;16.80;99.90;;;;;;5131542;27;20043;-66
2022/08/23 03:35:30;;;;;;;20.05;15.00;;;16.80;99.90;;;;;;5126535;27;20059;-67
2022/08/23 03:37:56;;;;;;;26.08;14.40;;;16.90;99.90;;;;;;5124516;27;20035;-66
2022/08/23 03:40:22;;;;;;;20.52;13.07;;;16.90;99.90;;;;;;5126586;27;20062;-67
2022/08/23 03:42:49;;;;;;;15.25;12.80;;;16.90;99.90;;;;;;5124539;27;20047;-68
2022/08/23 03:45:16;;;;;;;20.87;13.90;;;16.90;99.90;;;;;;5115396;27;20047;-68
2022/08/23 03:47:42;;;;;;;22.25;14.35;;;16.90;99.90;;;;;;5134538;27;20035;-66
2022/08/23 03:50:09;;;;;;;22.48;14.05;;;16.90;99.90;;;;;;5132278;27;20122;-67
2022/08/23 03:52:35;;;;;;;16.25;11.50;;;16.90;99.90;;;;;;5121529;27;20066;-66
2022/08/23 03:55:00;;;;;;;25.08;16.00;;;16.90;99.90;;;;;;5114241;27;20167;-67
2022/08/23 03:57:26;;;;;;;15.45;11.82;;;16.80;99.90;;;;;;5127465;27;20125;-67
2022/08/23 03:59:55;;;;;;;15.90;11.57;;;16.80;99.90;;;;;;5129099;27;20039;-66
2022/08/23 04:02:22;;;;;;;17.45;14.02;;;16.80;99.90;;;;;;5128862;27;20052;-65
2022/08/23 04:04:50;;;;;;;16.42;13.02;;;16.70;99.90;;;;;;5120646;27;20050;-67
2022/08/23 04:07:20;;;;;;;24.85;15.90;;;16.70;99.90;;;;;;5122763;27;20051;-66
2022/08/23 04:09:46;;;;;;;16.88;13.48;;;16.80;99.90;;;;;;5111693;27;20044;-67
2022/08/23 04:12:12;;;;;;;20.00;14.18;;;16.80;99.90;;;;;;5115919;27;20173;-66
2022/08/23 04:14:38;;;;;;;20.52;14.48;;;16.70;99.90;;;;;;5139730;27;20043;-65
2022/08/23 04:17:04;;;;;;;18.65;13.35;;;16.70;99.90;;;;;;5122306;27;20047;-66
2022/08/23 04:19:30;;;;;;;17.92;13.68;;;16.70;99.90;;;;;;5148602;27;20059;-66
2022/08/23 04:21:56;;;;;;;17.75;12.63;;;16.70;99.90;;;;;;5139237;27;20486;-66
2022/08/23 04:24:25;;;;;;;16.17;12.85;;;16.70;99.90;;;;;;5135677;27;20095;-67
2022/08/23 04:26:50;;;;;;;19.83;13.65;;;16.70;99.90;;;;;;5118472;27;20371;-67
2022/08/23 04:29:17;;;;;;;21.60;13.75;;;16.70;99.90;;;;;;5121011;27;20482;-67
2022/08/23 04:31:44;;;;;;;18.08;12.35;;;16.60;99.90;;;;;;5126906;27;20131;-67
2022/08/23 04:34:10;;;;;;;17.73;15.10;;;16.60;99.90;;;;;;5127737;27;20072;-67
2022/08/23 04:36:40;;;;;;;20.15;16.38;;;16.60;99.90;;;;;;5129877;27;20031;-67
2022/08/23 04:39:06;;;;;;;20.10;14.75;;;16.60;99.90;;;;;;5125990;27;20058;-67
2022/08/23 04:44:17;;;;;;;23.35;15.80;;;16.60;99.90;;;;;;5117525;27;20043;-66
2022/08/23 04:46:43;;;;;;;22.50;16.42;;;16.60;99.90;;;;;;5129477;27;20043;-67
2022/08/23 04:49:10;;;;;;;22.85;15.40;;;16.70;99.90;;;;;;5127491;27;20122;-66
2022/08/23 04:51:36;;;;;;;26.00;16.42;;;16.70;99.90;;;;;;5121923;27;20150;-66
2022/08/23 04:54:02;;;;;;;20.70;14.57;;;16.70;99.90;;;;;;5130112;27;20035;-66
2022/08/23 04:56:28;;;;;;;18.55;14.55;;;16.70;99.90;;;;;;5122601;27;20137;-67
2022/08/23 04:58:54;;;;;;;21.13;14.77;;;16.70;99.90;;;;;;5124428;27;20042;-67
2022/08/23 05:01:20;;;;;;;25.42;16.67;;;16.70;99.90;;;;;;5139649;27;20042;-66
2022/08/23 05:03:48;;;;;;;21.83;16.13;;;16.70;99.90;;;;;;5132923;27;20039;-67
2022/08/23 05:06:14;;;;;;;21.08;14.68;;;16.70;99.90;;;;;;5117786;27;20039;-67
2022/08/23 05:08:40;;;;;;;23.98;14.90;;;16.70;99.90;;;;;;5126103;27;20128;-66
2022/08/23 05:11:07;;;;;;;23.45;14.32;;;16.70;99.90;;;;;;5116845;27;20051;-67
2022/08/23 05:13:35;;;;;;;22.58;15.73;;;16.70;99.90;;;;;;5117714;27;20109;-66
2022/08/23 05:16:01;;;;;;;20.90;14.77;;;16.70;99.90;;;;;;5114452;27;20036;-66
2022/08/23 05:18:26;;;;;;;23.23;15.52;;;16.70;99.90;;;;;;5115345;27;20498;-65
2022/08/23 05:20:53;;;;;;;20.65;14.88;;;16.70;99.90;;;;;;5117297;27;20050;-66
2022/08/23 05:23:18;;;;;;;26.48;15.48;;;16.80;99.90;;;;;;5134771;27;20039;-66
2022/08/23 05:25:53;;;;;;;24.33;15.98;;;16.80;99.90;;;;;;5116046;27;20474;-66
2022/08/23 05:28:28;;;;;;;20.52;14.93;;;16.80;99.90;;;;;;5103299;27;20058;-66
2022/08/23 05:30:59;;;;;;;20.92;14.27;;;16.80;99.90;;;;;;5117229;27;20561;-67
2022/08/23 05:33:26;;;;;;;18.70;13.75;;;16.80;99.90;;;;;;5105458;27;20051;-66
2022/08/23 05:35:52;;;;;;;18.80;15.50;;;16.90;99.90;;;;;;5126111;27;20573;-67
2022/08/23 05:38:18;;;;;;;17.13;14.10;;;16.90;99.90;;;;;;5145000;27;20039;-65
2022/08/23 05:40:47;;;;;;;21.65;15.38;;;16.90;99.90;;;;;;5116479;28;20482;-66
2022/08/23 05:43:13;;;;;;;16.77;14.23;;;16.90;99.90;;;;;;5120854;27;20040;-66
2022/08/23 05:45:39;;;;;;;18.77;15.85;;;16.90;99.90;;;;;;5112622;28;20039;-66
2022/08/23 05:48:04;;;;;;;26.45;15.70;;;17.00;99.90;;;;;;5112534;28;20055;-66
2022/08/23 05:50:30;;;;;;;30.58;16.73;;;16.90;99.90;;;;;;5115578;27;20054;-66
2022/08/23 05:52:56;;;;;;;24.85;16.08;;;16.90;99.90;;;;;;5121771;28;20039;-66
2022/08/23 05:55:22;;;;;;;23.65;16.05;;;17.00;99.90;;;;;;5126213;28;20043;-66
2022/08/23 05:57:48;;;;;;;20.25;15.10;;;17.00;99.90;;;;;;5120358;28;20054;-65
2022/08/23 06:00:14;;;;;;;27.65;15.88;;;17.00;99.90;;;;;;5129800;28;20487;-65
2022/08/23 06:02:41;;;;;;;23.38;15.75;;;17.10;99.90;;;;;;5123689;27;20035;-66
2022/08/23 06:05:08;;;;;;;26.63;16.70;;;17.30;99.90;;;;;;5141321;27;20149;-66
2022/08/23 06:07:34;;;;;;;21.73;15.30;;;17.40;99.90;;;;;;5138768;27;20313;-66
2022/08/23 06:10:00;;;;;;;28.35;16.35;;;17.50;99.90;;;;;;5144937;27;20481;-66
2022/08/23 06:12:27;;;;;;;22.02;15.30;;;17.60;99.90;;;;;;5134155;27;20055;-67
2022/08/23 06:14:52;;;;;;;21.73;15.90;;;17.70;99.90;;;;;;5138452;27;20051;-66
2022/08/23 06:17:18;;;;;;;20.45;15.75;;;17.80;99.90;;;;;;5112584;27;20045;-67
2022/08/23 06:19:44;;;;;;;21.58;15.90;;;17.80;99.90;;;;;;5115783;28;20074;-66
2022/08/23 06:22:10;;;;;;;23.17;15.77;;;17.80;99.90;;;;;;5129755;27;20035;-66
2022/08/23 06:24:35;;;;;;;21.10;14.20;;;17.90;99.90;;;;;;5140301;27;20045;-66
2022/08/23 06:27:01;;;;;;;21.70;14.93;;;18.10;99.90;;;;;;5122767;27;20486;-68
2022/08/23 06:29:27;;;;;;;21.92;13.68;;;18.40;99.90;;;;;;5114219;27;20035;-66
2022/08/23 06:31:56;;;;;;;21.52;14.05;;;18.70;99.90;;;;;;5134978;27;20481;-67
2022/08/23 06:34:34;;;;;;;28.48;13.43;;;19.10;99.90;;;;;;5147823;27;20481;-66
2022/08/23 06:37:06;;;;;;;17.65;11.95;;;19.60;99.90;;;;;;5132027;27;20039;-66
2022/08/23 06:39:34;;;;;;;17.05;11.77;;;20.00;99.90;;;;;;5122848;27;20035;-66
2022/08/23 06:42:06;;;;;;;18.80;11.07;;;20.40;99.90;;;;;;5134072;27;20071;-67
2022/08/23 06:44:34;;;;;;;19.63;11.13;;;20.80;99.90;;;;;;5136014;27;20070;-66
2022/08/23 06:47:00;;;;;;;;;;;20.90;99.90;;;;;;5117718;27;20194;-66
2022/08/23 06:49:27;;;;;;;27.58;11.32;;;20.80;99.90;;;;;;5096661;28;19951;-67
2022/08/23 06:51:57;;;;;;;17.02;10.48;;;20.80;99.90;;;;;;5144114;27;20099;-67
2022/08/23 06:54:28;;;;;;;18.95;9.90;;;20.90;99.90;;;;;;5139445;27;20086;-67
2022/08/23 06:56:55;;;;;;;12.68;8.43;;;21.30;99.90;;;;;;5133499;27;20042;-67
2022/08/23 06:59:22;;;;;;;13.07;8.90;;;21.50;99.90;;;;;;5120341;27;20047;-65
2022/08/23 07:02:00;;;;;;;17.58;8.68;;;21.70;99.90;;;;;;5130761;27;20296;-68
2022/08/23 07:04:34;;;;;;;14.77;9.07;;;21.90;99.90;;;;;;5136031;27;20047;-69
2022/08/23 07:07:00;;;;;;;14.77;8.57;;;21.90;99.90;;;;;;5126675;27;20153;-66
2022/08/23 07:09:28;;;;;;;14.65;8.07;;;21.80;99.90;;;;;;5099531;28;20091;-67
2022/08/23 07:11:54;;;;;;;19.70;9.70;;;21.70;99.90;;;;;;5121244;27;20525;-67
2022/08/23 07:14:24;;;;;;;13.88;7.97;;;21.60;99.90;;;;;;5135585;27;20046;-68
2022/08/23 07:17:02;;;;;;;11.75;8.07;;;21.60;99.90;;;;;;5118739;27;20487;-68
2022/08/23 07:19:30;;;;;;;16.95;7.55;;;21.60;99.90;;;;;;5131358;27;20039;-68
2022/08/23 07:21:58;;;;;;;14.68;7.43;;;21.60;99.90;;;;;;5103389;27;20152;-68
2022/08/23 07:24:24;;;;;;;19.65;7.88;;;21.60;99.90;;;;;;5133588;27;20478;-68
2022/08/23 07:26:53;;;;;;;13.10;7.05;;;21.60;99.90;;;;;;5121577;27;20497;-69
2022/08/23 07:29:20;;;;;;;13.13;7.20;;;21.60;99.90;;;;;;5131966;27;20042;-69
2022/08/23 07:31:49;;;;;;;9.68;6.70;;;21.60;99.90;;;;;;5132005;27;20043;-68
2022/08/23 07:34:15;;;;;;;10.40;6.88;;;21.60;99.90;;;;;;5142790;27;20482;-67
2022/08/23 07:36:42;;;;;;;13.85;7.70;;;21.70;99.90;;;;;;5131573;27;20043;-69
2022/08/23 07:39:09;;;;;;;11.85;7.32;;;21.80;99.90;;;;;;5104071;27;20050;-68
2022/08/23 07:41:37;;;;;;;10.38;6.70;;;21.80;99.90;;;;;;5103060;27;20051;-68
2022/08/23 07:44:07;;;;;;;11.75;7.00;;;21.90;99.90;;;;;;5123632;27;20039;-69
2022/08/23 07:46:34;;;;;;;10.32;6.65;;;22.00;99.90;;;;;;5125410;27;20027;-68
2022/08/23 07:49:01;;;;;;;10.23;6.22;;;22.10;99.90;;;;;;5133469;27;20039;-67
2022/08/23 07:51:30;;;;;;;8.27;5.78;;;22.20;99.90;;;;;;5106876;27;20043;-66
2022/08/23 07:54:02;;;;;;;10.93;6.28;;;22.30;99.90;;;;;;5131217;27;20557;-67
2022/08/23 07:56:31;;;;;;;8.00;5.38;;;22.40;99.90;;;;;;5102281;27;20127;-69
2022/08/23 07:59:04;;;;;;;10.25;5.70;;;22.60;99.90;;;;;;5125085;27;20046;-67
2022/08/23 08:01:30;;;;;;;7.88;5.47;;;22.70;99.90;;;;;;5153069;27;20127;-67
2022/08/23 08:03:58;;;;;;;11.63;5.65;;;22.80;99.90;;;;;;5133855;27;20489;-67
2022/08/23 08:06:33;;;;;;;9.43;5.13;;;23.00;99.90;;;;;;5134296;27;20039;-69
2022/08/23 08:08:59;;;;;;;11.25;5.20;;;23.10;99.90;;;;;;5120537;27;20075;-67
2022/08/23 08:11:29;;;;;;;8.55;5.60;;;23.30;99.90;;;;;;5113028;28;20039;-67
2022/08/23 08:13:55;;;;;;;12.40;5.95;;;23.50;99.90;;;;;;5112341;27;20525;-67
2022/08/23 08:16:22;;;;;;;9.80;6.10;;;23.60;99.90;;;;;;5113181;27;20433;-69
2022/08/23 08:18:52;;;;;;;10.07;5.75;;;23.70;99.90;;;;;;5119977;27;20043;-68
2022/08/23 08:21:18;;;;;;;14.50;6.20;;;23.80;99.90;;;;;;5127600;27;20043;-67
2022/08/23 08:23:44;;;;;;;10.52;5.45;;;24.00;99.90;;;;;;5105823;28;20035;-66
2022/08/23 08:26:11;;;;;;;12.18;5.15;;;24.10;99.90;;;;;;5127003;27;20031;-67
2022/08/23 08:28:37;;;;;;;13.80;4.53;;;24.20;99.90;;;;;;5130219;27;20089;-67
2022/08/23 08:31:04;;;;;;;10.57;5.57;;;24.40;99.90;;;;;;5134174;27;20169;-68
2022/08/23 08:33:31;;;;;;;10.88;5.65;;;24.60;99.90;;;;;;5101146;28;20055;-67
2022/08/23 08:35:57;;;;;;;11.37;5.87;;;24.60;99.90;;;;;;5119676;27;20088;-66
2022/08/23 08:38:24;;;;;;;8.48;4.20;;;24.70;99.90;;;;;;5111026;28;20118;-69
2022/08/23 08:41:03;;;;;;;9.20;4.22;;;24.80;99.90;;;;;;5111802;28;20065;-66
2022/08/23 08:43:50;;;;;;;9.90;4.40;;;24.70;99.90;;;;;;5126392;27;20090;-67
2022/08/23 08:46:49;;;;;;;9.38;4.47;;;24.70;99.90;;;;;;5094339;28;20434;-68
2022/08/23 08:49:23;;;;;;;12.63;4.80;;;24.80;99.50;;;;;;5105529;28;20131;-67
2022/08/23 08:51:55;;;;;;;9.35;4.38;;;24.80;99.90;;;;;;5112156;27;20076;-68
2022/08/23 08:54:26;;;;;;;10.45;3.72;;;24.90;99.90;;;;;;5120585;27;20091;-67
2022/08/23 08:56:56;;;;;;;8.13;4.07;;;25.10;99.90;;;;;;5121322;27;20486;-68
2022/08/23 08:59:26;;;;;;;10.95;4.07;;;25.30;99.90;;;;;;5132583;27;20374;-67
2022/08/23 09:01:52;;;;;;;7.65;3.90;;;25.40;99.50;;;;;;5132598;27;20188;-66
2022/08/23 09:04:21;;;;;;;9.27;5.13;;;25.60;99.40;;;;;;5116728;27;20465;-67
2022/08/23 09:07:11;;;;;;;9.63;4.53;;;25.70;98.70;;;;;;5110956;28;20071;-67
2022/08/23 09:10:08;;;;;;;12.20;4.13;;;26.00;98.40;;;;;;5094174;28;20069;-67
2022/08/23 09:13:02;;;;;;;6.22;3.47;;;26.10;98.10;;;;;;5113720;27;20259;-66
2022/08/23 09:15:34;;;;;;;8.75;4.00;;;26.30;97.30;;;;;;5131717;27;20039;-68
2022/08/23 09:18:09;;;;;;;7.75;3.90;;;26.50;96.30;;;;;;5131039;27;20114;-67
2022/08/23 09:20:37;;;;;;;6.18;3.15;;;26.60;96.60;;;;;;5130159;27;20509;-68
2022/08/23 09:23:26;;;;;;;9.25;3.60;;;26.70;96.70;;;;;;5128962;27;20394;-66
2022/08/23 09:25:53;;;;;;;7.95;4.15;;;26.90;95.80;;;;;;5127527;27;20031;-67
2022/08/23 09:28:19;;;;;;;11.65;3.67;;;27.00;96.00;;;;;;5121290;27;20035;-67
2022/08/23 09:30:54;;;;;;;10.50;3.63;;;27.10;95.90;;;;;;5129604;27;20084;-66
2022/08/23 09:33:41;;;;;;;10.50;3.67;;;27.30;95.60;;;;;;5129386;27;20058;-66
2022/08/23 09:36:27;;;;;;;9.82;3.78;;;27.50;94.40;;;;;;5130859;27;20405;-69
2022/08/23 09:38:56;;;;;;;11.27;3.70;;;27.60;94.40;;;;;;5129989;27;20043;-67
2022/08/23 09:41:40;;;;;;;7.57;3.17;;;27.70;94.50;;;;;;5132380;27;20606;-69
2022/08/23 09:44:12;;;;;;;10.80;3.58;;;27.90;93.00;;;;;;5125562;27;20074;-67
2022/08/23 09:46:42;;;;;;;10.32;3.20;;;28.10;93.50;;;;;;5128014;28;20092;-67
2022/08/23 09:49:34;;;;;;;7.80;3.10;;;28.20;92.00;;;;;;5132633;27;20047;-68
2022/08/23 09:52:09;;;;;;;8.00;2.97;;;28.30;90.90;;;;;;5113653;28;20066;-66
2022/08/23 09:54:36;;;;;;;5.20;2.63;;;28.30;91.50;;;;;;5121862;28;20043;-67
2022/08/23 09:57:10;;;;;;;8.25;2.88;;;28.40;91.10;;;;;;5108604;28;20039;-68
2022/08/23 09:59:44;;;;;;;8.50;2.70;;;28.50;90.00;;;;;;5106371;28;20043;-67
2022/08/23 10:02:25;;;;;;;7.28;2.70;;;28.60;90.30;;;;;;5125332;28;20048;-67
2022/08/23 10:04:58;;;;;;;6.40;2.88;;;28.80;88.20;;;;;;5118715;28;20039;-66
2022/08/23 10:07:28;;;;;;;10.25;2.55;;;28.70;83.80;;;;;;5121287;28;20510;-67
2022/08/23 10:10:17;;;;;;;12.07;3.13;;;28.70;84.80;;;;;;5131552;28;20112;-67
2022/08/23 10:12:44;;;;;;;7.10;2.42;;;28.60;83.50;;;;;;5112907;28;20097;-68
2022/08/23 10:15:10;;;;;;;9.57;3.05;;;28.80;83.90;;;;;;5132047;27;20071;-69
2022/08/23 10:18:06;;;;;;;6.50;2.40;;;28.90;83.90;;;;;;5113384;28;20086;-68
2022/08/23 10:20:44;;;;;;;7.10;4.22;;;29.20;83.40;;;;;;5130028;27;20045;-68
2022/08/23 10:23:34;;;;;;;7.18;2.95;;;29.50;80.90;;;;;;5130372;27;20047;-69
2022/08/23 10:26:00;;;;;;;8.50;2.95;;;29.50;80.30;;;;;;5102781;28;20050;-68
2022/08/23 10:31:50;;;;;;;4.60;2.72;;;29.90;79.80;;;;;;5130576;28;20125;-69
2022/08/23 10:34:22;;;;;;;10.93;3.33;;;30.10;80.40;;;;;;5129716;27;20096;-68
2022/08/23 10:37:17;;;;;;;5.97;2.63;;;30.40;79.50;;;;;;5120720;28;20508;-68
2022/08/23 10:39:54;;;;;;;7.82;2.45;;;30.60;76.20;;;;;;5125973;28;20071;-69
2022/08/23 10:42:50;;;;;;;5.05;2.63;;;30.80;75.10;;;;;;5115860;28;20551;-67
2022/08/23 10:45:28;;;;;;;9.43;4.65;;;30.90;74.40;;;;;;5125948;28;20085;-67
2022/08/23 10:48:27;;;;;;;10.77;2.92;;;31.00;76.20;;;;;;5121422;27;20043;-69
2022/08/23 10:51:11;;;;;;;6.35;2.97;;;31.20;73.20;;;;;;5077371;27;20053;-69
2022/08/23 10:53:46;;;;;;;7.50;2.42;;;31.40;73.30;;;;;;5122951;28;20418;-68
2022/08/23 10:56:22;;;;;;;5.68;2.45;;;31.50;74.20;;;;;;5112915;28;20042;-69
2022/08/23 10:58:57;;;;;;;4.97;2.90;;;31.50;73.30;;;;;;5113910;28;20044;-68
2022/08/23 11:02:00;;;;;;;6.28;2.30;;;31.50;71.60;;;;;;5114499;27;20043;-66
2022/08/23 11:04:50;;;;;;;5.43;2.10;;;31.50;71.10;;;;;;5114047;28;20058;-68
2022/08/23 11:07:25;;;;;;;6.65;2.60;;;31.60;70.30;;;;;;5115405;27;20056;-67
2022/08/23 11:10:07;;;;;;;8.35;2.70;;;31.70;70.70;;;;;;5121628;27;20048;-68
2022/08/23 11:12:57;;;;;;;7.97;2.88;;;31.90;68.90;;;;;;5135342;27;20516;-69
2022/08/23 11:15:44;;;;;;;7.57;2.88;;;32.00;68.80;;;;;;5126383;27;20047;-69
2022/08/23 11:18:35;;;;;;;9.00;3.00;;;32.10;71.10;;;;;;5135960;27;20070;-68
2022/08/23 11:21:08;;;;;;;5.90;2.25;;;32.30;67.50;;;;;;5131216;27;20051;-70
2022/08/23 11:23:43;;;;;;;6.50;2.22;;;32.40;67.90;;;;;;5113164;27;20130;-69
2022/08/23 11:26:21;;;;;;;4.03;2.13;;;32.40;65.10;;;;;;5126687;27;20039;-69
2022/08/23 11:28:48;;;;;;;6.53;2.63;;;32.40;66.80;;;;;;5135274;27;20047;-68
2022/08/23 11:31:35;;;;;;;6.07;2.53;;;32.60;67.40;;;;;;5131714;27;20049;-70
2022/08/23 11:34:25;;;;;;;10.57;2.80;;;32.60;64.60;;;;;;5122792;27;20419;-69
2022/08/23 11:37:18;;;;;;;8.52;2.60;;;32.60;65.20;;;;;;5114863;28;20039;-68
2022/08/23 11:39:59;;;;;;;7.78;2.92;;;32.60;65.40;;;;;;5117265;27;20084;-68
2022/08/23 11:42:50;;;;;;;9.00;2.70;;;32.50;66.70;;;;;;5117659;27;20487;-68
2022/08/23 11:45:25;;;;;;;10.13;2.92;;;32.70;67.50;;;;;;5120777;27;20470;-69
2022/08/23 11:48:12;;;;;;;8.68;4.35;;;32.80;66.50;;;;;;5133863;27;20401;-68
2022/08/23 11:50:50;;;;;;;7.83;2.67;;;32.50;63.70;;;;;;5130918;27;20040;-67
2022/08/23 11:53:23;;;;;;;4.03;2.25;;;32.40;65.10;;;;;;5133936;27;20043;-67
2022/08/23 11:56:00;;;;;;;7.55;3.10;;;32.50;65.40;;;;;;5133524;27;20043;-67
2022/08/23 11:58:51;;;;;;;6.88;2.50;;;32.80;64.20;;;;;;5116474;27;20047;-68
2022/08/23 12:01:32;;;;;;;6.10;2.80;;;33.00;64.40;;;;;;5130614;27;20047;-68
2022/08/23 12:04:11;;;;;;;6.10;2.80;;;33.10;64.50;;;;;;5118556;27;20486;-68
2022/08/23 12:06:41;;;;;;;5.57;2.33;;;33.00;63.80;;;;;;5112785;28;20120;-68
2022/08/23 12:09:30;;;;;;;11.07;2.60;;;33.10;63.50;;;;;;5113799;28;20105;-67
2022/08/23 12:11:56;;;;;;;5.97;2.83;;;33.20;62.70;;;;;;5117940;27;20105;-68
2022/08/23 12:14:35;;;;;;;7.17;2.83;;;33.10;62.90;;;;;;5113808;28;20151;-68
2022/08/23 12:17:11;;;;;;;5.22;2.60;;;33.20;63.30;;;;;;5123390;27;20095;-68
2022/08/23 12:20:00;;;;;;;7.97;2.63;;;33.20;62.70;;;;;;5132963;27;20043;-68
2022/08/23 12:22:33;;;;;;;5.70;2.45;;;33.10;63.20;;;;;;5094842;28;20060;-69
2022/08/23 12:25:03;;;;;;;4.82;2.50;;;33.20;64.10;;;;;;5119418;27;20040;-67
2022/08/23 12:27:35;;;;;;;5.18;2.42;;;33.40;63.70;;;;;;5112773;28;20040;-68
2022/08/23 12:30:24;;;;;;;6.68;2.90;;;33.70;62.90;;;;;;5114219;27;20054;-68
2022/08/23 12:33:14;;;;;;;7.22;2.80;;;33.80;61.90;;;;;;5114887;27;20078;-69
2022/08/23 12:36:09;;;;;;;7.57;2.92;;;33.80;61.20;;;;;;5133915;27;20450;-69
2022/08/23 12:38:53;;;;;;;9.90;2.55;;;33.70;62.30;;;;;;5117923;27;20081;-68
2022/08/23 12:41:27;;;;;;;8.90;3.15;;;33.80;61.70;;;;;;5121444;27;20052;-67
2022/08/23 12:44:17;;;;;;;7.28;2.30;;;33.60;61.60;;;;;;5113514;28;20043;-68
2022/08/23 12:46:45;;;;;;;4.15;2.15;;;33.40;60.60;;;;;;5115165;27;20453;-69
2022/08/23 12:49:28;;;;;;;11.50;2.72;;;32.90;60.60;;;;;;5111823;28;20031;-68
2022/08/23 12:51:59;;;;;;;6.38;2.33;;;32.60;59.70;;;;;;5125239;27;20497;-69
2022/08/23 12:54:42;;;;;;;5.55;2.17;;;32.20;61.10;;;;;;5117503;27;20035;-68
2022/08/23 12:57:14;;;;;;;8.07;2.58;;;31.90;64.20;;;;;;5119987;27;20035;-69
2022/08/23 12:59:49;;;;;;;7.97;2.40;;;32.10;63.30;;;;;;5132301;27;20066;-68
2022/08/23 13:02:24;;;;;;;15.45;3.03;;;32.50;64.40;;;;;;5108973;28;20036;-68
2022/08/23 13:04:51;;;;;;;8.73;2.88;;;32.60;61.60;;;;;;5115192;27;20123;-68
2022/08/23 13:07:22;;;;;;;7.80;2.60;;;32.40;61.90;;;;;;5100306;27;20506;-69
2022/08/23 13:09:49;;;;;;;10.38;2.70;;;32.10;61.90;;;;;;5120369;27;20118;-68